createdAt,value
2022-08-30T00:02:00.126Z,74.48
2022-08-30T00:07:04.405Z,74.45
2022-08-30T00:12:11.629Z,74.43
2022-08-30T00:17:15.258Z,74.86
2022-08-30T00:22:19.330Z,75.20
2022-08-30T00:27:24.629Z,75.40
2022-08-30T00:32:28.162Z,75.52
2022-08-30T00:37:32.963Z,75.99
2022-08-30T00:42:37.386Z,76.21
2022-08-30T00:47:43.355Z,76.29
2022-08-30T00:52:51.719Z,76.52
2022-08-30T00:58:01.148Z,76.60
2022-08-30T01:03:10.266Z,76.78
2022-08-30T01:08:16.915Z,76.62
2022-08-30T01:13:22.566Z,76.58
2022-08-30T01:18:27.146Z,76.58
2022-08-30T01:23:33.304Z,76.81
2022-08-30T01:28:42.945Z,76.73
2022-08-30T01:33:47.502Z,76.72
2022-08-30T01:38:57.507Z,76.87
2022-08-30T01:44:05.340Z,76.76
2022-08-30T01:49:13.990Z,76.99
2022-08-30T01:54:19.121Z,77.15
2022-08-30T01:59:24.159Z,77.29
2022-08-30T02:04:29.257Z,77.44
2022-08-30T02:09:34.125Z,77.39
2022-08-30T02:14:40.376Z,77.15
2022-08-30T02:19:45.023Z,77.26
2022-08-30T02:24:50.243Z,77.46
2022-08-30T02:29:54.973Z,77.81
2022-08-30T02:34:58.828Z,78.02
2022-08-30T02:40:05.411Z,78.19
2022-08-30T02:45:09.529Z,78.36
2022-08-30T02:50:16.887Z,78.31
2022-08-30T02:55:20.145Z,78.28
2022-08-30T03:00:24.416Z,78.43
2022-08-30T03:05:28.947Z,78.51
2022-08-30T03:10:33.423Z,78.61
2022-08-30T03:15:40.646Z,78.54
2022-08-30T03:20:46.328Z,78.54
2022-08-30T03:25:59.998Z,78.66
2022-08-30T03:31:05.427Z,78.60
2022-08-30T03:36:09.602Z,78.63
2022-08-30T03:41:13.996Z,78.75
2022-08-30T03:46:18.611Z,78.86
2022-08-30T03:51:29.581Z,78.95
2022-08-30T03:56:33.579Z,78.95
2022-08-30T04:01:37.717Z,79.03
2022-08-30T04:06:42.290Z,78.96
2022-08-30T04:11:46.917Z,78.82
2022-08-30T04:16:51.949Z,78.86
2022-08-30T04:21:55.653Z,78.78
2022-08-30T04:27:00.315Z,78.90
2022-08-30T04:32:05.561Z,78.97
2022-08-30T04:47:47.180Z,78.73
2022-08-30T04:52:50.152Z,78.83
2022-08-30T04:57:53.312Z,78.45
2022-08-30T05:02:56.790Z,78.15
2022-08-30T05:07:59.346Z,77.89
2022-08-30T05:13:01.916Z,77.60
2022-08-30T05:18:04.384Z,77.64
2022-08-30T05:23:07.240Z,77.69
2022-08-30T05:28:10.625Z,77.72
2022-08-30T05:33:13.809Z,77.76
2022-08-30T05:38:16.159Z,77.69
2022-08-30T05:43:19.530Z,77.57
2022-08-30T05:48:22.148Z,77.53
2022-08-30T05:53:24.964Z,77.30
2022-08-30T05:58:27.006Z,77.20
2022-08-30T06:03:32.379Z,76.89
2022-08-30T06:08:35.510Z,76.84
2022-08-30T06:13:39.985Z,76.47
2022-08-30T06:18:42.916Z,76.26
2022-08-30T06:23:46.222Z,75.81
2022-08-30T06:28:49.414Z,75.51
2022-08-30T06:33:52.725Z,75.43
2022-08-30T06:38:57.867Z,75.42
2022-08-30T06:44:02.490Z,75.53
2022-08-30T06:49:07.633Z,75.34
2022-08-30T06:54:12.131Z,75.10
2022-08-30T06:59:14.530Z,74.58
2022-08-30T07:04:17.674Z,74.10
2022-08-30T07:09:22.795Z,73.89
2022-08-30T07:14:27.291Z,73.91
2022-08-30T07:19:30.702Z,73.54
2022-08-30T07:24:32.933Z,73.17
2022-08-30T07:29:35.462Z,73.03
2022-08-30T07:34:38.279Z,72.56
2022-08-30T07:39:45.818Z,71.88
2022-08-30T07:44:52.693Z,71.21
2022-08-30T07:50:03.039Z,70.90
2022-08-30T07:55:07.083Z,70.01
2022-08-30T08:00:10.534Z,69.12
2022-08-30T08:05:17.299Z,68.24
2022-08-30T08:10:22.185Z,68.17
2022-08-30T08:15:26.095Z,67.88
2022-08-30T08:20:28.891Z,67.79
2022-08-30T08:25:32.351Z,67.77
2022-08-30T08:30:37.382Z,67.70
2022-08-30T08:35:40.441Z,67.54
2022-08-30T08:41:26.639Z,66.86
2022-08-30T08:47:02.336Z,67.15
2022-08-30T08:52:28.075Z,66.97
2022-08-30T08:57:37.186Z,67.12
2022-08-30T09:02:46.462Z,67.20
2022-08-30T09:07:54.802Z,67.12
2022-08-30T09:13:00.145Z,66.98
2022-08-30T09:18:45.524Z,66.87
2022-08-30T09:23:54.427Z,66.35
2022-08-30T09:28:58.746Z,65.89
2022-08-30T09:34:06.411Z,65.34
2022-08-30T09:39:19.270Z,65.38
2022-08-30T09:44:30.437Z,64.85
2022-08-30T09:49:39.255Z,64.45
2022-08-30T09:55:03.059Z,63.71
2022-08-30T10:00:17.139Z,63.80
2022-08-30T10:05:46.661Z,63.50
2022-08-30T10:10:56.101Z,63.68
2022-08-30T10:16:34.465Z,63.71
2022-08-30T10:22:23.090Z,63.30
2022-08-30T10:27:34.525Z,62.66
2022-08-30T10:32:47.380Z,62.29
2022-08-30T10:38:26.176Z,62.02
2022-08-30T10:43:46.263Z,61.44
2022-08-30T10:48:56.129Z,61.10
2022-08-30T10:54:15.609Z,61.28
2022-08-30T10:59:20.960Z,61.40
2022-08-30T11:05:14.680Z,61.53
2022-08-30T11:10:43.360Z,61.68
2022-08-30T11:16:00.839Z,61.46
2022-08-30T11:21:22.208Z,61.71
2022-08-30T11:26:49.760Z,62.00
2022-08-30T11:31:53.519Z,62.14
2022-08-30T11:37:03.327Z,62.28
2022-08-30T11:42:29.370Z,62.13
2022-08-30T11:47:42.082Z,61.84
2022-08-30T11:53:07.008Z,62.19
2022-08-30T11:58:39.347Z,62.04
2022-08-30T12:04:15.293Z,61.75
2022-08-30T12:09:20.286Z,61.76
2022-08-30T12:14:38.134Z,61.71
2022-08-30T12:19:50.164Z,61.54
2022-08-30T12:24:55.598Z,61.47
2022-08-30T12:30:02.021Z,61.62
2022-08-30T12:35:07.917Z,61.61
2022-08-30T12:40:22.510Z,61.24
2022-08-30T12:45:30.946Z,61.28
2022-08-30T12:50:57.682Z,61.12
2022-08-30T12:56:04.754Z,60.98
2022-08-30T13:01:36.300Z,60.88
2022-08-30T13:06:56.163Z,60.65
2022-08-30T13:12:00.954Z,60.56
2022-08-30T13:17:12.481Z,59.80
2022-08-30T13:22:34.362Z,59.11
2022-08-30T13:27:39.974Z,59.19
2022-08-30T13:32:43.737Z,59.33
2022-08-30T13:37:49.555Z,59.05
2022-08-30T13:42:54.344Z,59.06
2022-08-30T13:48:00.183Z,58.61
2022-08-30T13:53:04.073Z,58.56
2022-08-30T13:58:07.110Z,58.17
2022-08-30T14:03:09.860Z,57.91
2022-08-30T14:19:10.285Z,57.72
2022-08-30T14:24:13.500Z,57.41
2022-08-30T14:29:25.798Z,56.83
2022-08-30T14:34:31.651Z,56.53
2022-08-30T14:39:35.745Z,56.71
2022-08-30T14:44:55.066Z,56.36
2022-08-30T14:50:00.981Z,56.39
2022-08-30T14:55:09.066Z,56.57
2022-08-30T15:00:12.830Z,56.74
2022-08-30T15:05:16.381Z,56.95
2022-08-30T15:10:21.117Z,56.97
2022-08-30T15:15:24.799Z,57.10
2022-08-30T15:20:27.906Z,57.52
2022-08-30T15:25:31.643Z,57.36
2022-08-30T15:30:35.291Z,57.31
2022-08-30T15:35:39.041Z,57.11
2022-08-30T15:40:43.464Z,57.11
2022-08-30T15:45:46.874Z,57.14
2022-08-30T15:51:08.451Z,57.39
2022-08-30T15:56:12.259Z,57.46
2022-08-30T16:01:16.252Z,58.03
2022-08-30T16:06:26.267Z,58.63
2022-08-30T16:11:30.079Z,58.81
2022-08-30T16:16:32.892Z,58.29
2022-08-30T16:21:36.703Z,58.37
2022-08-30T16:26:40.197Z,58.71
2022-08-30T16:31:44.951Z,59.05
2022-08-30T16:36:47.848Z,59.48
2022-08-30T16:41:51.248Z,60.07
2022-08-30T16:46:53.999Z,60.76
2022-08-30T16:51:57.016Z,61.19
2022-08-30T16:57:00.235Z,61.26
2022-08-30T17:02:04.656Z,61.65
2022-08-30T17:07:07.541Z,62.07
2022-08-30T17:12:16.854Z,62.32
2022-08-30T17:17:22.104Z,62.74
2022-08-30T17:22:25.311Z,63.24
2022-08-30T17:27:29.156Z,63.86
2022-08-30T17:32:31.483Z,64.31
2022-08-30T17:37:34.628Z,64.64
2022-08-30T17:42:40.733Z,65.23
2022-08-30T17:47:44.630Z,65.56
2022-08-30T17:52:47.956Z,65.93
2022-08-30T17:57:50.811Z,66.54
2022-08-30T18:02:53.700Z,66.78
2022-08-30T18:07:59.271Z,66.85
2022-08-30T18:13:03.211Z,67.12
2022-08-30T18:18:06.452Z,67.76
2022-08-30T18:23:09.438Z,68.18
2022-08-30T18:28:15.665Z,68.63
2022-08-30T18:33:19.736Z,69.43
2022-08-30T18:38:26.328Z,69.61
2022-08-30T18:43:35.121Z,69.60
2022-08-30T18:48:37.713Z,69.87
2022-08-30T18:53:40.654Z,70.15
2022-08-30T18:58:50.571Z,70.04
2022-08-30T19:03:54.087Z,69.90
2022-08-30T19:08:57.410Z,70.23
2022-08-30T19:14:03.573Z,70.30
2022-08-30T19:19:05.890Z,70.51
2022-08-30T19:24:08.754Z,70.77
2022-08-30T19:29:11.899Z,70.89
2022-08-30T19:34:14.118Z,70.61
2022-08-30T19:39:19.939Z,70.56
2022-08-30T19:44:22.233Z,70.24
2022-08-30T19:49:24.321Z,69.95
2022-08-30T19:54:27.116Z,69.70
2022-08-30T19:59:29.304Z,69.46
2022-08-30T20:04:33.183Z,69.35
2022-08-30T20:09:36.400Z,69.38
2022-08-30T20:14:40.136Z,69.32
2022-08-30T20:19:46.233Z,69.38
2022-08-30T20:24:49.052Z,69.70
2022-08-30T20:29:53.479Z,69.90
2022-08-30T20:34:56.692Z,70.05
2022-08-30T20:40:01.646Z,70.33
2022-08-30T20:45:06.425Z,70.54
2022-08-30T20:50:14.225Z,70.50
2022-08-30T20:55:18.296Z,70.60
2022-08-30T21:00:21.671Z,70.66
2022-08-30T21:05:25.364Z,70.65
2022-08-30T21:10:28.040Z,70.80
2022-08-30T21:15:38.383Z,71.25
2022-08-30T21:20:42.210Z,71.36
2022-08-30T21:25:45.777Z,71.48
2022-08-30T21:30:48.365Z,71.57
2022-08-30T21:36:10.166Z,71.87
2022-08-30T21:41:12.668Z,72.28
2022-08-30T21:46:17.325Z,72.42
2022-08-30T21:51:21.156Z,72.24
2022-08-30T21:56:23.789Z,72.39
2022-08-30T22:01:29.713Z,72.51
2022-08-30T22:06:34.048Z,72.64
2022-08-30T22:11:40.101Z,72.74
2022-08-30T22:16:46.492Z,72.81
2022-08-30T22:21:50.316Z,72.79
2022-08-30T22:26:56.737Z,72.90
2022-08-30T22:31:59.974Z,73.20
2022-08-30T22:37:02.310Z,73.25
2022-08-30T22:42:04.729Z,73.37
2022-08-30T22:47:08.708Z,73.46
2022-08-30T22:52:12.455Z,73.32
2022-08-30T22:57:17.840Z,73.26
2022-08-30T23:02:26.019Z,73.27
2022-08-30T23:07:29.254Z,73.37
2022-08-30T23:12:32.489Z,73.63
2022-08-30T23:17:39.598Z,73.84
2022-08-30T23:22:45.500Z,73.91
2022-08-30T23:28:05.958Z,74.12
2022-08-30T23:33:26.601Z,74.59
2022-08-30T23:38:47.220Z,74.59
2022-08-30T23:44:07.850Z,74.67
2022-08-30T23:49:28.686Z,74.94
2022-08-30T23:54:49.190Z,75.29
